createdAt,value
2023-04-21T00:02:47.153Z,1010.30
2023-04-21T00:07:46.299Z,1010.21
2023-04-21T00:12:48.360Z,1010.12
2023-04-21T00:17:48.498Z,1010.01
2023-04-21T00:22:47.539Z,1010.06
2023-04-21T00:27:49.636Z,1009.88
2023-04-21T00:32:48.756Z,1009.80
2023-04-21T00:37:50.804Z,1009.69
2023-04-21T00:42:49.886Z,1009.88
2023-04-21T00:47:51.026Z,1009.80
2023-04-21T00:52:52.038Z,1009.63
2023-04-21T00:57:53.115Z,1009.77
2023-04-21T01:02:54.328Z,1009.69
2023-04-21T01:07:55.538Z,1009.87
2023-04-21T01:12:57.611Z,1009.81
2023-04-21T01:17:57.797Z,1009.82
2023-04-21T01:22:57.833Z,1009.86
2023-04-21T01:27:58.205Z,1009.77
2023-04-21T01:32:57.321Z,1009.81
2023-04-21T01:37:59.385Z,1009.81
2023-04-21T01:42:58.447Z,1009.90
2023-04-21T01:47:59.552Z,1009.86
2023-04-21T01:53:00.629Z,1009.79
2023-04-21T01:58:01.679Z,1009.75
2023-04-21T02:03:02.998Z,1009.84
2023-04-21T02:08:05.191Z,1009.81
2023-04-21T02:13:04.282Z,1009.82
2023-04-21T02:18:05.390Z,1009.74
2023-04-21T02:23:07.433Z,1009.63
2023-04-21T02:28:07.523Z,1009.80
2023-04-21T02:33:08.638Z,1009.69
2023-04-21T02:38:08.715Z,1009.64
2023-04-21T02:43:07.829Z,1009.67
2023-04-21T02:48:09.972Z,1009.77
2023-04-21T02:53:09.051Z,1009.71
2023-04-21T02:58:10.146Z,1009.86
2023-04-21T03:03:11.322Z,1009.95
2023-04-21T03:08:13.655Z,1009.99
2023-04-21T03:13:13.709Z,1009.97
2023-04-21T03:18:13.046Z,1009.94
2023-04-21T03:23:15.132Z,1010.03
2023-04-21T03:28:15.201Z,1010.06
2023-04-21T03:33:16.265Z,1010.16
2023-04-21T03:38:19.244Z,1010.13
2023-04-21T03:43:16.318Z,1010.14
2023-04-21T03:48:18.367Z,1010.17
2023-04-21T03:53:18.429Z,1010.19
2023-04-21T03:59:37.460Z,1010.22
2023-04-21T04:03:20.501Z,1010.17
2023-04-21T04:08:20.671Z,1010.10
2023-04-21T04:13:19.780Z,1010.09
2023-04-21T04:18:20.864Z,1009.98
2023-04-21T04:23:21.950Z,1009.98
2023-04-21T04:28:23.017Z,1009.95
2023-04-21T04:33:24.139Z,1009.89
2023-04-21T04:38:25.238Z,1009.84
2023-04-21T04:43:27.347Z,1009.83
2023-04-21T04:48:27.407Z,1009.90
2023-04-21T04:53:27.473Z,1009.70
2023-04-21T04:58:27.580Z,1009.81
2023-04-21T05:03:26.765Z,1009.74
2023-04-21T05:08:27.853Z,1009.80
2023-04-21T05:13:29.935Z,1009.73
2023-04-21T05:18:29.992Z,1009.68
2023-04-21T05:23:30.056Z,1009.77
2023-04-21T05:28:30.146Z,1009.71
2023-04-21T05:33:29.222Z,1009.79
2023-04-21T05:38:31.300Z,1009.76
2023-04-21T05:43:30.405Z,1009.61
2023-04-21T05:48:31.481Z,1009.58
2023-04-21T05:53:33.584Z,1009.65
2023-04-21T05:58:32.661Z,1009.59
2023-04-21T06:03:33.933Z,1009.69
2023-04-21T06:08:35.077Z,1009.64
2023-04-21T06:13:38.348Z,1009.68
2023-04-21T06:18:37.091Z,1009.76
2023-04-21T06:23:36.209Z,1009.79
2023-04-21T06:28:39.299Z,1009.78
2023-04-21T06:33:38.368Z,1009.80
2023-04-21T06:38:39.442Z,1009.58
2023-04-21T06:43:41.542Z,1009.64
2023-04-21T06:48:40.616Z,1009.55
2023-04-21T06:53:41.690Z,1009.48
2023-04-21T06:58:43.754Z,1009.45
2023-04-21T07:03:42.960Z,1009.45
2023-04-21T07:08:45.082Z,1009.21
2023-04-21T07:13:44.146Z,1009.21
2023-04-21T07:18:46.234Z,1009.19
2023-04-21T07:23:46.322Z,1009.04
2023-04-21T07:28:45.421Z,1009.08
2023-04-21T07:33:47.501Z,1009.06
2023-04-21T07:38:46.582Z,1008.95
2023-04-21T07:43:47.677Z,1008.93
2023-04-21T07:48:49.896Z,1008.94
2023-04-21T07:53:48.989Z,1009.02
2023-04-21T07:58:51.149Z,1008.99
2023-04-21T08:03:50.342Z,1008.95
2023-04-21T08:08:52.728Z,1008.88
2023-04-21T08:13:51.784Z,1008.90
2023-04-21T08:18:52.818Z,1008.84
2023-04-21T08:23:54.016Z,1008.78
2023-04-21T08:28:55.226Z,1008.73
2023-04-21T08:34:01.958Z,1008.70
2023-04-21T08:38:56.332Z,1008.66
2023-04-21T08:43:57.439Z,1008.70
2023-04-21T08:48:58.516Z,1008.68
2023-04-21T08:54:00.619Z,1008.62
2023-04-21T08:59:00.017Z,1008.67
2023-04-21T09:04:01.392Z,1008.69
2023-04-21T09:09:02.599Z,1008.66
2023-04-21T09:14:03.671Z,1008.57
2023-04-21T09:19:05.819Z,1008.52
2023-04-21T09:24:05.908Z,1008.45
2023-04-21T09:29:05.961Z,1008.43
2023-04-21T09:34:07.125Z,1008.37
2023-04-21T09:44:06.161Z,1008.38
2023-04-21T09:49:07.282Z,1008.34
2023-04-21T09:54:15.632Z,1008.34
2023-04-21T09:59:08.288Z,1008.32
2023-04-21T10:04:10.447Z,1008.30
2023-04-21T10:09:09.508Z,1008.21
2023-04-21T10:14:10.898Z,1008.15
2023-04-21T10:19:12.033Z,1008.10
2023-04-21T10:24:13.129Z,1008.05
2023-04-21T10:29:14.219Z,1007.99
2023-04-21T10:34:15.315Z,1007.92
2023-04-21T10:39:16.420Z,1007.88
2023-04-21T10:44:18.821Z,1007.79
2023-04-21T10:49:19.055Z,1007.82
2023-04-21T10:54:18.492Z,1007.80
2023-04-21T10:59:17.673Z,1007.73
2023-04-21T11:04:19.328Z,1007.67
2023-04-21T11:09:19.829Z,1007.59
2023-04-21T11:14:19.305Z,1007.55
2023-04-21T11:19:19.516Z,1007.45
2023-04-21T11:24:19.724Z,1007.41
2023-04-21T11:29:19.897Z,1007.36
2023-04-21T11:34:20.210Z,1007.37
2023-04-21T11:39:21.306Z,1007.30
2023-04-21T11:44:19.957Z,1007.34
2023-04-21T11:49:20.022Z,1007.27
2023-04-21T11:54:19.409Z,1007.24
2023-04-21T11:59:20.518Z,1007.17
2023-04-21T12:04:25.595Z,1007.11
2023-04-21T12:09:23.726Z,1007.03
2023-04-21T12:14:23.833Z,1007.04
2023-04-21T12:19:24.019Z,1007.04
2023-04-21T12:24:23.137Z,1007.03
2023-04-21T12:29:25.236Z,1007.02
2023-04-21T12:34:24.315Z,1007.02
2023-04-21T12:39:25.393Z,1006.95
2023-04-21T12:44:27.490Z,1006.96
2023-04-21T12:49:27.806Z,1006.86
2023-04-21T12:54:26.917Z,1006.90
2023-04-21T12:59:28.392Z,1006.79
2023-04-21T13:04:27.988Z,1006.88
2023-04-21T13:09:27.229Z,1006.76
2023-04-21T13:14:29.300Z,1006.76
2023-04-21T13:19:28.576Z,1006.88
2023-04-21T13:24:29.828Z,1006.60
2023-04-21T13:29:32.144Z,1006.60
2023-04-21T13:34:31.556Z,1006.63
2023-04-21T13:39:33.091Z,1006.64
2023-04-21T13:44:32.287Z,1006.60
2023-04-21T13:49:34.719Z,1006.49
2023-04-21T13:54:34.216Z,1006.60
2023-04-21T13:59:33.662Z,1006.61
2023-04-21T14:04:34.126Z,1006.60
2023-04-21T14:09:34.581Z,1006.60
2023-04-21T14:19:35.219Z,1006.59
2023-04-21T14:24:34.473Z,1006.55
2023-04-21T14:29:35.950Z,1006.39
2023-04-21T14:34:36.154Z,1006.42
2023-04-21T14:39:35.596Z,1006.33
2023-04-21T14:44:35.901Z,1006.33
2023-04-21T14:49:35.317Z,1006.26
2023-04-21T14:54:34.619Z,1006.28
2023-04-21T14:59:36.214Z,1006.30
2023-04-21T15:04:35.810Z,1006.18
2023-04-21T15:09:37.475Z,1006.38
2023-04-21T15:14:36.766Z,1006.29
2023-04-21T15:19:38.823Z,1006.31
2023-04-21T15:24:37.908Z,1006.30
2023-04-21T15:29:38.958Z,1006.27
2023-04-21T15:34:42.023Z,1006.23
2023-04-21T15:39:42.124Z,1006.31
2023-04-21T15:44:42.187Z,1006.25
2023-04-21T15:49:41.308Z,1006.23
2023-04-21T15:54:42.397Z,1006.16
2023-04-21T15:59:44.492Z,1006.21
2023-04-21T16:04:42.993Z,1006.29
2023-04-21T16:09:45.839Z,1006.36
2023-04-21T16:14:55.674Z,1006.23
2023-04-21T16:19:45.822Z,1006.24
2023-04-21T16:24:48.942Z,1006.29
2023-04-21T16:29:49.039Z,1006.31
2023-04-21T16:34:49.129Z,1006.37
2023-04-21T16:39:48.275Z,1006.42
2023-04-21T16:44:49.305Z,1006.54
2023-04-21T16:49:51.388Z,1006.55
2023-04-21T16:54:50.498Z,1006.65
2023-04-21T16:59:52.601Z,1006.57
2023-04-21T17:04:51.694Z,1006.61
2023-04-21T17:09:52.821Z,1006.71
2023-04-21T17:14:53.925Z,1006.77
2023-04-21T17:19:56.014Z,1006.89
2023-04-21T17:24:55.443Z,1006.96
2023-04-21T17:29:54.803Z,1006.90
2023-04-21T17:34:55.912Z,1007.01
2023-04-21T17:39:57.742Z,1007.06
2023-04-21T17:44:57.661Z,1007.12
2023-04-21T17:49:59.766Z,1007.12
2023-04-21T17:54:58.858Z,1007.13
2023-04-21T18:00:01.192Z,1007.19
2023-04-21T18:05:00.439Z,1007.20
2023-04-21T18:10:01.828Z,1007.20
2023-04-21T18:15:03.888Z,1007.14
2023-04-21T18:20:03.088Z,1007.12
2023-04-21T18:25:04.141Z,1007.14
2023-04-21T18:30:06.198Z,1007.13
2023-04-21T18:35:05.604Z,1007.21
2023-04-21T18:40:06.942Z,1007.21
2023-04-21T18:45:08.379Z,1007.29
2023-04-21T18:50:07.735Z,1007.43
2023-04-21T18:55:10.030Z,1007.45
2023-04-21T19:00:09.234Z,1007.49
2023-04-21T19:05:11.527Z,1007.58
2023-04-21T19:10:11.820Z,1007.59
2023-04-21T19:15:10.948Z,1007.58
2023-04-21T19:20:12.437Z,1007.64
2023-04-21T19:25:13.693Z,1007.56
2023-04-21T19:30:13.182Z,1007.64
2023-04-21T19:35:12.827Z,1007.63
2023-04-21T19:40:13.306Z,1007.71
2023-04-21T19:45:12.750Z,1007.69
2023-04-21T19:50:14.063Z,1007.73
2023-04-21T19:55:15.344Z,1007.73
2023-04-21T20:00:16.778Z,1007.77
2023-04-21T20:05:15.960Z,1007.76
2023-04-21T20:10:17.222Z,1007.70
2023-04-21T20:15:19.274Z,1007.80
2023-04-21T20:20:19.483Z,1007.77
2023-04-21T20:25:18.595Z,1007.85
2023-04-21T20:30:20.040Z,1007.88
2023-04-21T20:35:21.360Z,1007.85
2023-04-21T20:40:20.690Z,1007.79
2023-04-21T20:45:21.849Z,1007.75
2023-04-21T20:50:23.019Z,1007.76
2023-04-21T20:55:24.096Z,1007.78
2023-04-21T21:00:25.248Z,1007.79
2023-04-21T21:05:27.333Z,1007.85
2023-04-21T21:10:27.406Z,1007.76
2023-04-21T21:15:26.480Z,1007.85
2023-04-21T21:20:27.647Z,1007.93
2023-04-21T21:25:29.858Z,1007.88
2023-04-21T21:30:29.899Z,1007.99
2023-04-21T21:35:28.981Z,1008.00
2023-04-21T21:40:32.074Z,1008.00
2023-04-21T21:45:31.296Z,1008.01
2023-04-21T21:50:32.695Z,1008.01
2023-04-21T21:55:33.777Z,1008.01
2023-04-21T22:00:36.859Z,1008.02
2023-04-21T22:05:36.503Z,1008.01
2023-04-21T22:10:38.588Z,1007.94
2023-04-21T22:15:37.196Z,1007.95
2023-04-21T22:20:36.388Z,1007.96
2023-04-21T22:25:37.543Z,1007.97
2023-04-21T22:30:38.676Z,1007.97
2023-04-21T22:35:38.910Z,1007.97
2023-04-21T22:40:40.973Z,1008.03
2023-04-21T22:45:40.054Z,1007.99
2023-04-21T22:50:41.091Z,1008.09
2023-04-21T22:55:43.183Z,1008.05
2023-04-21T23:00:42.287Z,1008.12
2023-04-21T23:05:43.520Z,1008.11
2023-04-21T23:10:44.705Z,1008.03
2023-04-21T23:15:45.792Z,1008.01
2023-04-21T23:20:47.903Z,1008.00
2023-04-21T23:25:47.085Z,1008.02
2023-04-21T23:30:48.280Z,1007.95
2023-04-21T23:35:53.332Z,1007.91
2023-04-21T23:40:50.360Z,1008.00
2023-04-21T23:45:52.628Z,1007.97
2023-04-21T23:50:51.671Z,1007.92
2023-04-21T23:55:53.731Z,1007.93
